Time;durP1;ratioP1;P1;durP2;ratioP2;P2;SDS_P1;SDS_P2;PMS_P1;PMS_P2;Temp;Humidity;BMP_temperature;BMP_pressure;BME280_temperature;BME280_humidity;BME280_pressure;Samples;Min_cycle;Max_cycle;Signal;HPM_P1;HPM_P2
2022/12/24 00:00:01;;;;;;;;;;;13.20;99.90;13.60;99662.00;;;;347540;28;84237;-94
2022/12/24 00:00:13;;;;;;;;;;;13.30;99.90;13.50;99657.00;;;;345618;28;90769;-94
2022/12/24 00:00:25;;;;;;;;;;;13.30;99.90;13.50;99656.00;;;;344871;28;82490;-94
2022/12/24 00:00:38;;;;;;;;;;;13.20;99.90;13.50;99667.00;;;;348687;27;90568;-94
2022/12/24 00:00:49;;;;;;;;;;;13.30;99.90;13.50;99662.00;;;;347648;28;82367;-94
2022/12/24 00:01:01;;;;;;;;;;;13.30;99.90;13.50;99658.00;;;;344628;28;91068;-95
2022/12/24 00:01:13;;;;;;;;;;;13.20;99.90;13.50;99664.00;;;;347724;28;83396;-95
2022/12/24 00:01:25;;;;;;;;;;;13.20;99.90;13.60;99661.00;;;;344456;28;91799;-94
2022/12/24 00:01:37;;;;;;;;;;;13.20;99.90;13.50;99660.00;;;;343539;28;83196;-94
2022/12/24 00:01:48;;;;;;;;;;;13.20;99.90;13.50;99652.00;;;;344380;28;91215;-94
2022/12/24 00:02:00;;;;;;;;;;;13.30;99.90;13.50;99661.00;;;;347634;28;82455;-94
2022/12/24 00:02:12;;;;;;;;;;;13.30;99.90;13.50;99654.00;;;;348625;27;91947;-94
2022/12/24 00:02:24;;;;;;;;;;;13.20;99.90;13.50;99657.00;;;;343436;28;82390;-94
2022/12/24 00:02:36;;;;;;;;;;;13.20;99.90;13.50;99658.00;;;;345746;28;91852;-95
2022/12/24 00:02:48;;;;;;;;;;;13.20;99.90;13.40;99656.00;;;;344792;28;84032;-94
2022/12/24 00:03:00;;;;;;;;;;;13.20;99.90;13.40;99651.00;;;;345787;28;90622;-95
2022/12/24 00:03:12;;;;;;;;;;;13.20;99.90;13.40;99647.00;;;;344767;28;83485;-93
2022/12/24 00:03:24;;;;;;;;;;;13.20;99.90;13.40;99651.00;;;;342860;28;90581;-94
2022/12/24 00:03:36;;;;;;;;;;;13.20;99.90;13.40;99647.00;;;;344924;28;83355;-94
2022/12/24 00:03:48;;;;;;;;;;;13.20;99.90;13.50;99655.00;;;;347073;28;91542;-94
2022/12/24 00:04:00;;;;;;;;;;;13.20;99.90;13.50;99655.00;;;;343554;28;82501;-94
2022/12/24 00:04:12;;;;;;;;;;;13.20;99.90;13.40;99647.00;;;;343217;28;90101;-94
2022/12/24 00:04:24;;;;;;;;;;;13.20;99.90;13.40;99647.00;;;;343471;28;83461;-91
2022/12/24 00:04:35;;;;;;;;;;;13.20;99.90;13.40;99645.00;;;;343042;28;91153;-94
2022/12/24 00:04:47;;;;;;;;;;;13.20;99.90;13.50;99652.00;;;;346128;28;83400;-94
2022/12/24 00:04:59;;;;;;;;;;;13.20;99.90;13.50;99651.00;;;;343046;28;90675;-95
2022/12/24 00:05:12;;;;;;;;;;;13.20;99.90;13.40;99652.00;;;;346090;28;83545;-94
2022/12/24 00:05:24;;;;;;;;;;;13.20;99.90;13.40;99653.00;;;;347163;27;90560;-94
2022/12/24 00:05:36;;;;;;;;;;;13.20;99.90;13.50;99653.00;;;;344844;28;83241;-93
2022/12/24 00:05:48;;;;;;;;;;;13.20;99.90;13.40;99642.00;;;;343014;28;92508;-93
2022/12/24 00:06:04;;;;;;;;;;;13.20;99.90;13.50;99653.00;;;;346177;28;82625;-94
2022/12/24 00:06:21;;;;;;;;;;;13.20;99.90;13.50;99657.00;;;;347162;28;91763;-94
2022/12/24 00:06:33;;;;;;;;;;;13.20;99.90;13.40;99645.00;;;;344407;28;83518;-94
2022/12/24 00:06:46;;;;;;;;;;;13.20;99.90;13.40;99650.00;;;;343073;28;91337;-94
2022/12/24 00:06:57;;;;;;;;;;;13.20;99.90;13.40;99641.00;;;;346266;28;82461;-94
2022/12/24 00:07:09;;;;;;;;;;;13.20;99.90;13.40;99646.00;;;;345634;28;90797;-95
2022/12/24 00:07:21;;;;;;;;;;;13.20;99.90;13.40;99645.00;;;;344871;28;83527;-94
2022/12/24 00:07:33;;;;;;;;;;;13.20;99.90;13.40;99646.00;;;;346994;28;89129;-94
2022/12/24 00:07:45;;;;;;;;;;;13.20;99.90;13.50;99650.00;;;;344925;28;82551;-94
2022/12/24 00:07:56;;;;;;;;;;;13.20;99.90;13.50;99641.00;;;;345499;28;92340;-93
2022/12/24 00:08:08;;;;;;;;;;;13.20;99.90;13.50;99652.00;;;;346247;28;83308;-94
2022/12/24 00:08:20;;;;;;;;;;;13.20;99.90;13.40;99641.00;;;;344416;28;91622;-94
2022/12/24 00:08:32;;;;;;;;;;;13.20;99.90;13.40;99647.00;;;;344850;28;82514;-93
2022/12/24 00:08:44;;;;;;;;;;;13.20;99.90;13.40;99641.00;;;;344402;28;89933;-93
2022/12/24 00:08:56;;;;;;;;;;;13.20;99.90;13.40;99642.00;;;;346222;28;83575;-94
2022/12/24 00:09:08;;;;;;;;;;;13.20;99.90;13.40;99653.00;;;;345768;28;91687;-94
2022/12/24 00:09:20;;;;;;;;;;;13.20;99.90;13.40;99648.00;;;;347578;28;83532;-93
2022/12/24 00:09:32;;;;;;;;;;;13.20;99.90;13.40;99650.00;;;;343149;28;90695;-93
2022/12/24 00:09:44;;;;;;;;;;;13.20;99.90;13.40;99646.00;;;;346264;28;83419;-93
2022/12/24 00:09:55;;;;;;;;;;;13.20;99.90;13.40;99646.00;;;;344263;28;93342;-93
2022/12/24 00:10:08;;;;;;;;;;;13.20;99.90;13.40;99650.00;;;;344808;28;83400;-93
2022/12/24 00:10:20;;;;;;;;;;;13.20;99.90;13.40;99656.00;;;;343155;28;90361;-93
2022/12/24 00:10:32;;;;;;;;;;;13.20;99.90;13.40;99660.00;;;;347670;28;83519;-93
2022/12/24 00:10:47;;;;;;;;;;;13.20;99.90;13.40;99648.00;;;;345746;28;90023;-93
2022/12/24 00:10:59;;;;;;;;;;;13.20;99.90;13.40;99647.00;;;;344798;28;83447;-93
2022/12/24 00:11:11;;;;;;;;;;;13.20;99.90;13.40;99652.00;;;;347215;28;90872;-93
2022/12/24 00:11:22;;;;;;;;;;;13.20;99.90;13.40;99656.00;;;;346317;28;83462;-92
2022/12/24 00:11:34;;;;;;;;;;;13.20;99.90;13.40;99655.00;;;;342978;28;91503;-93
2022/12/24 00:11:46;;;;;;;;;;;13.20;99.90;13.40;99651.00;;;;344891;28;82457;-93
2022/12/24 00:11:58;;;;;;;;;;;13.20;99.90;13.40;99649.00;;;;344281;28;92454;-93
2022/12/24 00:12:10;;;;;;;;;;;13.20;99.90;13.40;99649.00;;;;346374;28;83166;-93
2022/12/24 00:12:21;;;;;;;;;;;13.10;99.90;13.40;99647.00;;;;345815;28;89053;-93
2022/12/24 00:12:33;;;;;;;;;;;13.20;99.90;13.40;99647.00;;;;343417;28;83496;-93
2022/12/24 00:12:45;;;;;;;;;;;13.10;99.90;13.40;99651.00;;;;347208;28;91628;-93
2022/12/24 00:12:56;;;;;;;;;;;13.10;99.90;13.40;99649.00;;;;344917;28;82513;-93
2022/12/24 00:13:08;;;;;;;;;;;13.10;99.90;13.40;99647.00;;;;343086;28;91614;-93
2022/12/24 00:13:21;;;;;;;;;;;13.10;99.90;13.40;99642.00;;;;348953;27;83434;-92
2022/12/24 00:13:33;;;;;;;;;;;13.20;99.90;13.40;99644.00;;;;347014;28;91692;-94
2022/12/24 00:13:45;;;;;;;;;;;13.20;99.90;13.50;99647.00;;;;344960;28;82347;-94
2022/12/24 00:13:56;;;;;;;;;;;13.20;99.90;13.50;99646.00;;;;345684;28;88890;-92
2022/12/24 00:14:08;;;;;;;;;;;13.20;99.90;13.50;99636.00;;;;344869;28;83379;-92
2022/12/24 00:14:20;;;;;;;;;;;13.20;99.90;13.60;99642.00;;;;343080;28;91540;-92
2022/12/24 00:14:32;;;;;;;;;;;13.20;99.90;13.50;99644.00;;;;344885;28;83585;-93
2022/12/24 00:14:44;;;;;;;;;;;13.20;99.90;13.50;99636.00;;;;345798;28;91618;-92
2022/12/24 00:14:55;;;;;;;;;;;13.20;99.90;13.60;99641.00;;;;346018;28;82445;-92
2022/12/24 00:15:08;;;;;;;;;;;13.20;99.90;13.60;99641.00;;;;345750;28;91491;-92
2022/12/24 00:15:19;;;;;;;;;;;13.20;99.90;13.50;99632.00;;;;343448;28;83522;-93
2022/12/24 00:15:31;;;;;;;;;;;13.20;99.90;13.50;99638.00;;;;347251;28;91941;-92
2022/12/24 00:15:43;;;;;;;;;;;13.20;99.90;13.60;99633.00;;;;346341;28;83394;-92
2022/12/24 00:15:55;;;;;;;;;;;13.20;99.90;13.60;99627.00;;;;343024;28;91201;-92
2022/12/24 00:16:07;;;;;;;;;;;13.20;99.90;13.60;99632.00;;;;343561;28;82518;-92
2022/12/24 00:16:18;;;;;;;;;;;13.20;99.90;13.50;99633.00;;;;344426;28;91797;-92
2022/12/24 00:16:30;;;;;;;;;;;13.20;99.90;13.50;99628.00;;;;342012;28;83401;-92
2022/12/24 00:16:42;;;;;;;;;;;13.20;99.90;13.50;99629.00;;;;345691;28;89561;-92
2022/12/24 00:16:54;;;;;;;;;;;13.20;99.90;13.50;99622.00;;;;344789;28;83473;-92
2022/12/24 00:17:06;;;;;;;;;;;13.20;99.90;13.60;99624.00;;;;345734;28;90782;-92
2022/12/24 00:17:18;;;;;;;;;;;13.20;99.90;13.50;99629.00;;;;347369;28;82550;-92
2022/12/24 00:17:29;;;;;;;;;;;13.20;99.90;13.50;99626.00;;;;345600;28;90621;-92
2022/12/24 00:17:41;;;;;;;;;;;13.20;99.90;13.60;99627.00;;;;344870;28;83533;-92
2022/12/24 00:17:53;;;;;;;;;;;13.20;99.90;13.60;99620.00;;;;344332;28;92765;-92
2022/12/24 00:18:04;;;;;;;;;;;13.20;99.90;13.60;99631.00;;;;347519;28;83405;-92
2022/12/24 00:18:16;;;;;;;;;;;13.20;99.90;13.60;99622.00;;;;343030;28;89361;-92
2022/12/24 00:18:28;;;;;;;;;;;13.20;99.90;13.60;99625.00;;;;346205;28;82558;-92
2022/12/24 00:18:40;;;;;;;;;;;13.20;99.90;13.50;99623.00;;;;345656;28;90686;-92
2022/12/24 00:18:57;;;;;;;;;;;13.20;99.90;13.50;99623.00;;;;342089;28;82520;-92
2022/12/24 00:19:09;;;;;;;;;;;13.20;99.90;13.50;99625.00;;;;344441;28;90792;-92
2022/12/24 00:19:20;;;;;;;;;;;13.20;99.90;13.50;99624.00;;;;346241;28;83380;-92
2022/12/24 00:19:32;;;;;;;;;;;13.20;99.90;13.60;99627.00;;;;344449;28;90290;-92
2022/12/24 00:19:44;;;;;;;;;;;13.20;99.90;13.50;99629.00;;;;344843;28;83351;-92
2022/12/24 00:19:56;;;;;;;;;;;13.20;99.90;13.60;99633.00;;;;345607;28;91570;-92
2022/12/24 00:20:08;;;;;;;;;;;13.20;99.90;13.50;99633.00;;;;344841;28;83565;-92
2022/12/24 00:20:20;;;;;;;;;;;13.20;99.90;13.50;99631.00;;;;347185;28;90498;-92
2022/12/24 00:20:32;;;;;;;;;;;13.20;99.90;13.50;99633.00;;;;344615;28;82590;-92
2022/12/24 00:20:47;;;;;;;;;;;13.20;99.90;13.50;99636.00;;;;344377;28;91738;-92
2022/12/24 00:21:00;;;;;;;;;;;13.20;99.90;13.50;99628.00;;;;346231;28;83340;-92
2022/12/24 00:21:13;;;;;;;;;;;13.20;99.90;13.60;99634.00;;;;348564;27;91636;-92
2022/12/24 00:21:25;;;;;;;;;;;13.20;99.90;13.60;99635.00;;;;343490;28;83815;-93
2022/12/24 00:21:37;;;;;;;;;;;13.20;99.90;13.60;99633.00;;;;341804;28;90086;-92
2022/12/24 00:21:49;;;;;;;;;;;13.20;99.90;13.50;99634.00;;;;346221;28;83414;-92
2022/12/24 00:22:01;;;;;;;;;;;13.20;99.90;13.50;99637.00;;;;345758;28;91200;-92
2022/12/24 00:22:13;;;;;;;;;;;13.20;99.90;13.50;99641.00;;;;343539;28;83439;-93
2022/12/24 00:22:24;;;;;;;;;;;13.20;99.90;13.50;99638.00;;;;341699;28;90515;-92
2022/12/24 00:22:37;;;;;;;;;;;13.20;99.90;13.50;99640.00;;;;344708;28;82550;-91
2022/12/24 00:22:48;;;;;;;;;;;13.20;99.90;13.50;99645.00;;;;345829;28;91264;-93
2022/12/24 00:23:01;;;;;;;;;;;13.20;99.90;13.50;99645.00;;;;343458;28;83492;-92
2022/12/24 00:23:13;;;;;;;;;;;13.20;99.90;13.50;99643.00;;;;345485;28;90736;-93
2022/12/24 00:23:24;;;;;;;;;;;13.20;99.90;13.50;99647.00;;;;344989;28;82403;-93
2022/12/24 00:23:36;;;;;;;;;;;13.20;99.90;13.50;99642.00;;;;343021;28;91545;-93
2022/12/24 00:23:48;;;;;;;;;;;13.20;99.90;13.50;99649.00;;;;344699;28;82519;-93
2022/12/24 00:24:03;;;;;;;;;;;13.20;99.90;13.50;99647.00;;;;345433;28;92010;-92
2022/12/24 00:24:14;;;;;;;;;;;13.20;99.90;13.50;99647.00;;;;346254;28;83352;-92
2022/12/24 00:24:26;;;;;;;;;;;13.20;99.90;13.50;99648.00;;;;345764;28;91401;-92
2022/12/24 00:24:38;;;;;;;;;;;13.20;99.90;13.40;99649.00;;;;346137;28;82567;-93
2022/12/24 00:24:50;;;;;;;;;;;13.20;99.90;13.50;99654.00;;;;345844;28;90793;-93
2022/12/24 00:25:02;;;;;;;;;;;13.20;99.90;13.50;99650.00;;;;347645;28;83315;-92
2022/12/24 00:25:13;;;;;;;;;;;13.20;99.90;13.60;99654.00;;;;342940;28;90884;-92
2022/12/24 00:25:25;;;;;;;;;;;13.20;99.90;13.50;99652.00;;;;346155;28;83550;-92
2022/12/24 00:25:37;;;;;;;;;;;13.20;99.90;13.50;99655.00;;;;345816;28;90840;-92
2022/12/24 00:25:49;;;;;;;;;;;13.20;99.90;13.50;99658.00;;;;346139;28;83377;-92
2022/12/24 00:26:00;;;;;;;;;;;13.20;99.90;13.50;99658.00;;;;345583;28;92192;-92
2022/12/24 00:26:12;;;;;;;;;;;13.20;99.90;13.50;99655.00;;;;344560;28;82648;-93
2022/12/24 00:26:24;;;;;;;;;;;13.20;99.90;13.50;99655.00;;;;343165;28;90548;-93
2022/12/24 00:26:36;;;;;;;;;;;13.20;99.90;13.50;99655.00;;;;344804;28;83501;-92
2022/12/24 00:26:48;;;;;;;;;;;13.20;99.90;13.50;99659.00;;;;343094;28;90367;-92
2022/12/24 00:26:59;;;;;;;;;;;13.20;99.90;13.50;99660.00;;;;344837;28;83355;-92
2022/12/24 00:27:11;;;;;;;;;;;13.20;99.90;13.50;99666.00;;;;345369;28;90393;-92
2022/12/24 00:27:23;;;;;;;;;;;13.20;99.90;13.50;99653.00;;;;343515;28;83460;-93
2022/12/24 00:27:35;;;;;;;;;;;13.20;99.90;13.40;99653.00;;;;347295;28;90407;-93
2022/12/24 00:27:47;;;;;;;;;;;13.20;99.90;13.40;99657.00;;;;349066;27;83379;-93
2022/12/24 00:27:58;;;;;;;;;;;13.20;99.90;13.40;99658.00;;;;342995;28;91465;-92
2022/12/24 00:28:10;;;;;;;;;;;13.20;99.90;13.40;99662.00;;;;344943;28;82432;-92
2022/12/24 00:28:22;;;;;;;;;;;13.20;99.90;13.50;99657.00;;;;345991;28;90241;-92
2022/12/24 00:28:34;;;;;;;;;;;13.10;99.90;13.50;99653.00;;;;347618;27;82309;-92
2022/12/24 00:28:46;;;;;;;;;;;13.10;99.90;13.40;99660.00;;;;344273;28;91201;-93
2022/12/24 00:28:57;;;;;;;;;;;13.10;99.90;13.50;99660.00;;;;344804;28;83280;-92
2022/12/24 00:29:10;;;;;;;;;;;13.10;99.90;13.50;99658.00;;;;345817;28;90510;-93
2022/12/24 00:29:22;;;;;;;;;;;13.20;99.90;13.50;99664.00;;;;347504;28;83443;-92
2022/12/24 00:29:34;;;;;;;;;;;13.10;99.90;13.50;99659.00;;;;344462;28;90233;-92
2022/12/24 00:29:45;;;;;;;;;;;13.20;99.90;13.50;99658.00;;;;346166;28;83959;-92
2022/12/24 00:29:57;;;;;;;;;;;13.20;99.90;13.40;99661.00;;;;344285;28;91898;-92
2022/12/24 00:30:09;;;;;;;;;;;13.20;99.90;13.40;99662.00;;;;346170;28;83356;-93
2022/12/24 00:30:21;;;;;;;;;;;13.10;99.90;13.40;99667.00;;;;345774;28;91422;-92
2022/12/24 00:30:33;;;;;;;;;;;13.20;99.90;13.50;99675.00;;;;344786;28;82354;-92
2022/12/24 00:30:44;;;;;;;;;;;13.10;99.90;13.50;99669.00;;;;346929;28;90448;-92
2022/12/24 00:30:56;;;;;;;;;;;13.10;99.90;13.50;99660.00;;;;346199;28;83419;-93
2022/12/24 00:31:13;;;;;;;;;;;13.10;99.90;13.50;99663.00;;;;345717;28;91015;-92
2022/12/24 00:31:25;;;;;;;;;;;13.20;99.90;13.50;99670.00;;;;344795;28;83455;-92
2022/12/24 00:31:37;;;;;;;;;;;13.20;99.90;13.50;99668.00;;;;343109;28;91585;-92
2022/12/24 00:31:49;;;;;;;;;;;13.10;99.90;13.50;99666.00;;;;347619;28;83397;-92
2022/12/24 00:32:00;;;;;;;;;;;13.20;99.90;13.50;99662.00;;;;347130;27;92085;-92
2022/12/24 00:32:12;;;;;;;;;;;13.20;99.90;13.50;99662.00;;;;346272;28;83393;-92
2022/12/24 00:32:24;;;;;;;;;;;13.20;99.90;13.60;99665.00;;;;345862;28;91054;-92
2022/12/24 00:32:37;;;;;;;;;;;13.20;99.90;13.50;99665.00;;;;342074;28;82619;-92
2022/12/24 00:32:49;;;;;;;;;;;13.20;99.90;13.60;99663.00;;;;344465;28;90783;-93
2022/12/24 00:33:01;;;;;;;;;;;13.20;99.90;13.50;99659.00;;;;344802;28;83410;-92
2022/12/24 00:33:13;;;;;;;;;;;13.20;99.90;13.60;99664.00;;;;346918;28;90469;-93
2022/12/24 00:33:30;;;;;;;;;;;13.20;99.90;13.70;99657.00;;;;346307;28;83287;-93
2022/12/24 00:33:42;;;;;;;;;;;13.20;99.90;13.70;99661.00;;;;348629;27;92181;-93
2022/12/24 00:33:53;;;;;;;;;;;13.20;99.90;13.60;99659.00;;;;344915;28;82238;-93
2022/12/24 00:34:07;;;;;;;;;;;13.20;99.90;13.60;99661.00;;;;344404;28;91029;-93
2022/12/24 00:34:19;;;;;;;;;;;13.20;99.90;13.60;99655.00;;;;347640;28;82570;-93
2022/12/24 00:34:31;;;;;;;;;;;13.20;99.90;13.60;99659.00;;;;344369;28;91764;-93
2022/12/24 00:34:42;;;;;;;;;;;13.20;99.90;13.60;99662.00;;;;347649;28;83413;-92
2022/12/24 00:34:54;;;;;;;;;;;13.20;99.90;13.60;99656.00;;;;346999;28;91165;-94
2022/12/24 00:35:07;;;;;;;;;;;13.20;99.90;13.50;99659.00;;;;343448;28;83207;-93
2022/12/24 00:35:18;;;;;;;;;;;13.20;99.90;13.60;99661.00;;;;345567;28;90833;-93
2022/12/24 00:35:36;;;;;;;;;;;13.20;99.90;13.60;99660.00;;;;346111;28;83428;-93
2022/12/24 00:35:49;;;;;;;;;;;13.20;99.90;13.50;99657.00;;;;347248;28;90177;-93
2022/12/24 00:36:01;;;;;;;;;;;13.20;99.90;13.60;99661.00;;;;344876;28;83302;-93
2022/12/24 00:36:12;;;;;;;;;;;13.20;99.90;13.50;99664.00;;;;346952;28;91400;-93
2022/12/24 00:36:24;;;;;;;;;;;13.20;99.90;13.60;99664.00;;;;346285;28;83428;-93
2022/12/24 00:36:36;;;;;;;;;;;13.20;99.90;13.60;99656.00;;;;348532;27;90334;-94
2022/12/24 00:36:48;;;;;;;;;;;13.20;99.90;13.60;99659.00;;;;346214;28;83419;-93
2022/12/24 00:37:00;;;;;;;;;;;13.20;99.90;13.60;99659.00;;;;344286;28;90471;-93
2022/12/24 00:37:11;;;;;;;;;;;13.20;99.90;13.60;99658.00;;;;344808;28;82420;-93
2022/12/24 00:37:23;;;;;;;;;;;13.20;99.90;13.60;99662.00;;;;347306;28;89817;-93
2022/12/24 00:37:35;;;;;;;;;;;13.20;99.90;13.60;99656.00;;;;347758;28;82241;-92
2022/12/24 00:37:47;;;;;;;;;;;13.20;99.90;13.60;99661.00;;;;344468;28;90019;-93
2022/12/24 00:37:59;;;;;;;;;;;13.20;99.90;13.50;99659.00;;;;347611;27;82631;-93
2022/12/24 00:38:11;;;;;;;;;;;13.20;99.90;13.50;99659.00;;;;344414;28;91553;-94
2022/12/24 00:38:22;;;;;;;;;;;13.20;99.90;13.50;99656.00;;;;346224;28;83926;-92
2022/12/24 00:38:34;;;;;;;;;;;13.20;99.90;13.50;99661.00;;;;344233;28;91257;-93
2022/12/24 00:38:46;;;;;;;;;;;13.20;99.90;13.50;99661.00;;;;344939;28;83463;-93
2022/12/24 00:38:58;;;;;;;;;;;13.20;99.90;13.50;99665.00;;;;344282;28;90551;-93
2022/12/24 00:39:10;;;;;;;;;;;13.20;99.90;13.50;99655.00;;;;346177;28;83431;-93
2022/12/24 00:39:22;;;;;;;;;;;13.20;99.90;13.50;99653.00;;;;344366;28;91604;-93
2022/12/24 00:39:33;;;;;;;;;;;13.20;99.90;13.50;99660.00;;;;343509;28;82587;-93
2022/12/24 00:39:45;;;;;;;;;;;13.20;99.90;13.50;99657.00;;;;345837;28;90818;-94
2022/12/24 00:39:57;;;;;;;;;;;13.20;99.90;13.50;99666.00;;;;343397;28;83544;-93
2022/12/24 00:40:09;;;;;;;;;;;13.20;99.90;13.50;99660.00;;;;347131;28;92599;-93
2022/12/24 00:40:21;;;;;;;;;;;13.20;99.90;13.40;99661.00;;;;345484;28;83440;-93
2022/12/24 00:40:33;;;;;;;;;;;13.20;99.90;13.40;99667.00;;;;345786;28;90619;-93
2022/12/24 00:40:44;;;;;;;;;;;13.20;99.90;13.40;99657.00;;;;346322;28;82343;-93
2022/12/24 00:40:59;;;;;;;;;;;13.20;99.90;13.50;99655.00;;;;347200;28;89797;-93
2022/12/24 00:41:24;;;;;;;;;;;13.20;99.90;13.50;99667.00;;;;344702;28;83410;-93
2022/12/24 00:41:37;;;;;;;;;;;13.20;99.90;13.50;99664.00;;;;346972;28;90903;-93
2022/12/24 00:41:48;;;;;;;;;;;13.20;99.90;13.50;99661.00;;;;346244;28;83388;-93
2022/12/24 00:42:00;;;;;;;;;;;13.20;99.90;13.40;99668.00;;;;345791;28;91315;-93
2022/12/24 00:42:12;;;;;;;;;;;13.20;99.90;13.50;99658.00;;;;347615;28;83402;-93
2022/12/24 00:42:24;;;;;;;;;;;13.20;99.90;13.50;99661.00;;;;347183;28;91386;-93
2022/12/24 00:42:35;;;;;;;;;;;13.20;99.90;13.50;99656.00;;;;344824;28;82507;-93
2022/12/24 00:42:48;;;;;;;;;;;13.20;99.90;13.50;99662.00;;;;345492;28;90596;-93
2022/12/24 00:42:59;;;;;;;;;;;13.20;99.90;13.50;99667.00;;;;343462;28;83472;-93
2022/12/24 00:43:11;;;;;;;;;;;13.20;99.90;13.50;99670.00;;;;344425;28;91672;-93
2022/12/24 00:43:23;;;;;;;;;;;13.20;99.90;13.50;99666.00;;;;346206;28;83319;-93
2022/12/24 00:43:35;;;;;;;;;;;13.20;99.90;13.50;99666.00;;;;345822;28;88037;-93
2022/12/24 00:43:46;;;;;;;;;;;13.20;99.90;13.50;99658.00;;;;344774;28;83197;-93
2022/12/24 00:44:00;;;;;;;;;;;13.20;99.90;13.50;99664.00;;;;342801;28;91344;-93
2022/12/24 00:44:12;;;;;;;;;;;13.20;99.90;13.50;99666.00;;;;346258;28;83548;-93
2022/12/24 00:44:24;;;;;;;;;;;13.20;99.90;13.40;99659.00;;;;345836;28;91063;-93
2022/12/24 00:44:36;;;;;;;;;;;13.20;99.90;13.40;99667.00;;;;344793;28;83498;-93
2022/12/24 00:44:48;;;;;;;;;;;13.20;99.90;13.40;99662.00;;;;347295;28;90503;-94
2022/12/24 00:45:00;;;;;;;;;;;13.20;99.90;13.40;99670.00;;;;346209;28;83423;-93
2022/12/24 00:45:12;;;;;;;;;;;13.20;99.90;13.40;99662.00;;;;341316;28;91343;-93
2022/12/24 00:45:25;;;;;;;;;;;13.20;99.90;13.40;99673.00;;;;347600;28;83330;-93
2022/12/24 00:45:37;;;;;;;;;;;13.10;99.90;13.40;99665.00;;;;345776;28;91292;-94
2022/12/24 00:45:49;;;;;;;;;;;13.20;99.90;13.40;99668.00;;;;347513;28;83237;-93
2022/12/24 00:46:01;;;;;;;;;;;13.10;99.90;13.40;99664.00;;;;344386;28;91726;-93
2022/12/24 00:46:13;;;;;;;;;;;13.10;99.90;13.40;99663.00;;;;349048;27;83335;-93
2022/12/24 00:46:25;;;;;;;;;;;13.10;99.90;13.40;99668.00;;;;346964;28;92764;-93
2022/12/24 00:46:38;;;;;;;;;;;13.10;99.90;13.40;99664.00;;;;344813;28;82582;-93
2022/12/24 00:46:50;;;;;;;;;;;13.10;99.90;13.40;99669.00;;;;345682;28;91203;-93
2022/12/24 00:47:02;;;;;;;;;;;13.10;99.90;13.40;99664.00;;;;347597;28;83459;-93
2022/12/24 00:47:22;;;;;;;;;;;13.10;99.90;13.40;99662.00;;;;344469;28;91218;-93
2022/12/24 00:47:34;;;;;;;;;;;13.10;99.90;13.40;99664.00;;;;347583;28;83352;-93
2022/12/24 00:47:46;;;;;;;;;;;13.10;99.90;13.40;99663.00;;;;344423;28;91235;-94
2022/12/24 00:47:57;;;;;;;;;;;13.10;99.90;13.40;99674.00;;;;347507;28;82565;-93
2022/12/24 00:48:09;;;;;;;;;;;13.10;99.90;13.40;99663.00;;;;345767;28;91108;-92
2022/12/24 00:48:21;;;;;;;;;;;13.10;99.90;13.30;99673.00;;;;344966;28;82488;-93
2022/12/24 00:48:33;;;;;;;;;;;13.10;99.90;13.40;99668.00;;;;345610;28;91372;-92
2022/12/24 00:48:45;;;;;;;;;;;13.10;99.90;13.40;99669.00;;;;344880;28;82457;-93
2022/12/24 00:48:57;;;;;;;;;;;13.10;99.90;13.30;99673.00;;;;343023;28;91881;-93
2022/12/24 00:49:08;;;;;;;;;;;13.10;99.90;13.40;99666.00;;;;346262;28;82459;-92
2022/12/24 00:49:20;;;;;;;;;;;13.10;99.90;13.40;99678.00;;;;345668;28;92118;-93
2022/12/24 00:49:32;;;;;;;;;;;13.10;99.90;13.40;99669.00;;;;344790;28;82541;-94
2022/12/24 00:49:44;;;;;;;;;;;13.10;99.90;13.40;99675.00;;;;345472;28;89534;-94
2022/12/24 00:49:57;;;;;;;;;;;13.10;99.90;13.30;99676.00;;;;343407;28;82549;-93
2022/12/24 00:50:09;;;;;;;;;;;13.10;99.90;13.40;99675.00;;;;345799;28;90034;-93
2022/12/24 00:50:21;;;;;;;;;;;13.10;99.90;13.40;99675.00;;;;346174;28;83500;-93
2022/12/24 00:50:33;;;;;;;;;;;13.10;99.90;13.30;99669.00;;;;345665;28;92593;-93
2022/12/24 00:50:44;;;;;;;;;;;13.10;99.90;13.40;99674.00;;;;344906;28;82556;-93
2022/12/24 00:50:56;;;;;;;;;;;13.10;99.90;13.30;99680.00;;;;347164;28;91468;-93
2022/12/24 00:51:08;;;;;;;;;;;13.10;99.90;13.30;99671.00;;;;346275;28;82629;-93
2022/12/24 00:51:20;;;;;;;;;;;13.10;99.90;13.30;99670.00;;;;344436;28;90672;-93
2022/12/24 00:51:33;;;;;;;;;;;13.10;99.90;13.40;99662.00;;;;347614;28;83434;-93
2022/12/24 00:51:45;;;;;;;;;;;13.10;99.90;13.40;99665.00;;;;348565;27;91945;-92
2022/12/24 00:51:57;;;;;;;;;;;13.10;99.90;13.40;99669.00;;;;347526;28;83436;-93
2022/12/24 00:52:09;;;;;;;;;;;13.10;99.90;13.40;99663.00;;;;344436;28;92012;-93
2022/12/24 00:52:21;;;;;;;;;;;13.10;99.90;13.40;99671.00;;;;346164;28;83476;-93
2022/12/24 00:52:32;;;;;;;;;;;13.10;99.90;13.40;99655.00;;;;345730;28;92703;-90
2022/12/24 00:52:44;;;;;;;;;;;13.10;99.90;13.40;99673.00;;;;344732;28;83464;-93
2022/12/24 00:52:56;;;;;;;;;;;13.10;99.90;13.50;99660.00;;;;348455;27;91973;-93
2022/12/24 00:53:08;;;;;;;;;;;13.10;99.90;13.50;99668.00;;;;346233;28;83496;-93
2022/12/24 00:53:19;;;;;;;;;;;13.10;99.90;13.50;99660.00;;;;342877;28;91482;-94
2022/12/24 00:53:31;;;;;;;;;;;13.10;99.90;13.50;99659.00;;;;344834;28;83311;-94
2022/12/24 00:53:43;;;;;;;;;;;13.10;99.90;13.50;99663.00;;;;347240;28;90736;-93
2022/12/24 00:53:55;;;;;;;;;;;13.10;99.90;13.50;99656.00;;;;347517;28;82666;-93
2022/12/24 00:54:07;;;;;;;;;;;13.10;99.90;13.40;99658.00;;;;345807;28;88130;-93
2022/12/24 00:54:18;;;;;;;;;;;13.10;99.90;13.50;99663.00;;;;344886;28;82552;-93
2022/12/24 00:54:30;;;;;;;;;;;13.10;99.90;13.50;99658.00;;;;345664;28;92788;-93
2022/12/24 00:54:42;;;;;;;;;;;13.10;99.90;13.50;99653.00;;;;347643;28;83392;-94
2022/12/24 00:54:54;;;;;;;;;;;13.10;99.90;13.50;99659.00;;;;344338;28;90370;-94
2022/12/24 00:55:06;;;;;;;;;;;13.10;99.90;13.40;99655.00;;;;347485;28;82264;-94
2022/12/24 00:55:18;;;;;;;;;;;13.20;99.90;13.50;99654.00;;;;343980;28;90590;-94
2022/12/24 00:55:30;;;;;;;;;;;13.10;99.90;13.40;99663.00;;;;344820;28;83288;-93
2022/12/24 00:55:42;;;;;;;;;;;13.10;99.90;13.50;99659.00;;;;347174;28;91712;-94
2022/12/24 00:55:53;;;;;;;;;;;13.20;99.90;13.50;99661.00;;;;347479;28;83438;-93
2022/12/24 00:56:06;;;;;;;;;;;13.10;99.90;13.50;99660.00;;;;345753;28;91954;-93
2022/12/24 00:56:18;;;;;;;;;;;13.10;99.90;13.60;99665.00;;;;346278;28;83367;-94
2022/12/24 00:56:29;;;;;;;;;;;13.20;99.90;13.70;99672.00;;;;341605;28;91710;-93
2022/12/24 00:56:41;;;;;;;;;;;13.20;99.90;13.70;99668.00;;;;343565;28;82513;-94
2022/12/24 00:56:53;;;;;;;;;;;13.20;99.90;13.70;99672.00;;;;344353;28;91140;-93
2022/12/24 00:57:05;;;;;;;;;;;13.20;99.90;13.70;99671.00;;;;347376;28;82542;-94
2022/12/24 00:57:16;;;;;;;;;;;13.20;99.90;13.70;99661.00;;;;347134;28;91585;-93
2022/12/24 00:57:28;;;;;;;;;;;13.20;99.90;13.60;99667.00;;;;343528;28;83241;-93
2022/12/24 00:57:40;;;;;;;;;;;13.20;99.90;13.60;99664.00;;;;345768;28;91855;-94
2022/12/24 00:57:52;;;;;;;;;;;13.20;99.90;13.70;99661.00;;;;345880;28;82437;-93
2022/12/24 00:58:03;;;;;;;;;;;13.20;99.90;13.60;99666.00;;;;344319;28;92379;-93
2022/12/24 00:58:15;;;;;;;;;;;13.20;99.90;13.60;99667.00;;;;346307;28;83388;-93
2022/12/24 00:58:27;;;;;;;;;;;13.20;99.90;13.60;99667.00;;;;345727;28;92229;-93
2022/12/24 00:58:39;;;;;;;;;;;13.20;99.90;13.60;99670.00;;;;347612;28;82552;-93
2022/12/24 00:58:51;;;;;;;;;;;13.30;99.90;13.60;99672.00;;;;345948;28;89906;-94
2022/12/24 00:59:02;;;;;;;;;;;13.30;99.90;13.50;99675.00;;;;345019;28;82234;-93
2022/12/24 00:59:14;;;;;;;;;;;13.20;99.90;13.60;99671.00;;;;345810;28;91593;-93
2022/12/24 00:59:26;;;;;;;;;;;13.20;99.90;13.60;99677.00;;;;347550;28;83203;-93
2022/12/24 00:59:38;;;;;;;;;;;13.20;99.90;13.60;99671.00;;;;342941;28;90425;-94
2022/12/24 00:59:50;;;;;;;;;;;13.20;99.90;13.50;99665.00;;;;347599;28;83387;-94